sensor_id;sensor_type;location;lat;lon;timestamp;temperature;humidity
20479;DHT22;10398;52.490;13.434;2022-10-23T00:01:21;15.20;99.90
20479;DHT22;10398;52.490;13.434;2022-10-23T00:03:50;15.20;99.90
20479;DHT22;10398;52.490;13.434;2022-10-23T00:06:17;15.20;99.90
20479;DHT22;10398;52.490;13.434;2022-10-23T00:08:44;15.10;99.90
20479;DHT22;10398;52.490;13.434;2022-10-23T00:11:12;15.10;99.90
20479;DHT22;10398;52.490;13.434;2022-10-23T00:13:38;15.10;99.90
20479;DHT22;10398;52.490;13.434;2022-10-23T00:16:05;15.00;99.90
20479;DHT22;10398;52.490;13.434;2022-10-23T00:18:31;14.90;99.90
20479;DHT22;10398;52.490;13.434;2022-10-23T00:20:56;14.90;99.90
20479;DHT22;10398;52.490;13.434;2022-10-23T00:23:22;14.80;99.90
20479;DHT22;10398;52.490;13.434;2022-10-23T00:25:48;14.80;99.90
20479;DHT22;10398;52.490;13.434;2022-10-23T00:28:13;14.80;99.90
20479;DHT22;10398;52.490;13.434;2022-10-23T00:30:39;14.80;99.90
20479;DHT22;10398;52.490;13.434;2022-10-23T00:33:05;14.80;99.90
20479;DHT22;10398;52.490;13.434;2022-10-23T00:35:31;14.70;99.90
20479;DHT22;10398;52.490;13.434;2022-10-23T00:37:56;14.70;99.90
20479;DHT22;10398;52.490;13.434;2022-10-23T00:40:22;14.70;99.90
20479;DHT22;10398;52.490;13.434;2022-10-23T00:42:47;14.70;99.90
20479;DHT22;10398;52.490;13.434;2022-10-23T00:45:23;14.70;99.90
20479;DHT22;10398;52.490;13.434;2022-10-23T00:47:50;14.70;99.90
20479;DHT22;10398;52.490;13.434;2022-10-23T00:50:17;14.70;99.90
20479;DHT22;10398;52.490;13.434;2022-10-23T00:52:48;14.70;99.90
20479;DHT22;10398;52.490;13.434;2022-10-23T00:55:15;14.60;99.90
20479;DHT22;10398;52.490;13.434;2022-10-23T00:57:43;14.70;99.90
20479;DHT22;10398;52.490;13.434;2022-10-23T01:00:39;14.70;99.90
20479;DHT22;10398;52.490;13.434;2022-10-23T01:03:05;14.70;99.90
20479;DHT22;10398;52.490;13.434;2022-10-23T01:05:38;14.60;99.90
20479;DHT22;10398;52.490;13.434;2022-10-23T01:08:11;14.60;99.90
20479;DHT22;10398;52.490;13.434;2022-10-23T01:10:55;14.60;99.90
20479;DHT22;10398;52.490;13.434;2022-10-23T01:13:38;14.60;99.90
20479;DHT22;10398;52.490;13.434;2022-10-23T01:16:22;14.70;99.90
20479;DHT22;10398;52.490;13.434;2022-10-23T01:19:18;14.70;99.90
20479;DHT22;10398;52.490;13.434;2022-10-23T01:22:04;14.70;99.90
20479;DHT22;10398;52.490;13.434;2022-10-23T01:24:52;14.70;99.90
20479;DHT22;10398;52.490;13.434;2022-10-23T01:27:40;14.60;99.90
20479;DHT22;10398;52.490;13.434;2022-10-23T01:30:10;14.60;99.90
20479;DHT22;10398;52.490;13.434;2022-10-23T01:32:50;14.60;99.90
20479;DHT22;10398;52.490;13.434;2022-10-23T01:35:23;14.60;99.90
20479;DHT22;10398;52.490;13.434;2022-10-23T01:38:17;14.60;99.90
20479;DHT22;10398;52.490;13.434;2022-10-23T01:40:58;14.60;99.90
20479;DHT22;10398;52.490;13.434;2022-10-23T01:43:31;14.60;99.90
20479;DHT22;10398;52.490;13.434;2022-10-23T01:46:03;14.50;99.90
20479;DHT22;10398;52.490;13.434;2022-10-23T01:48:31;14.50;99.90
20479;DHT22;10398;52.490;13.434;2022-10-23T01:51:02;14.50;99.90
20479;DHT22;10398;52.490;13.434;2022-10-23T01:53:31;14.50;99.90
20479;DHT22;10398;52.490;13.434;2022-10-23T01:56:00;14.50;99.90
20479;DHT22;10398;52.490;13.434;2022-10-23T01:58:28;14.50;99.90
20479;DHT22;10398;52.490;13.434;2022-10-23T02:00:58;14.50;99.90
20479;DHT22;10398;52.490;13.434;2022-10-23T02:03:26;14.50;99.90
20479;DHT22;10398;52.490;13.434;2022-10-23T02:05:54;14.40;99.90
20479;DHT22;10398;52.490;13.434;2022-10-23T02:08:19;14.40;99.90
20479;DHT22;10398;52.490;13.434;2022-10-23T02:11:06;14.40;99.90
20479;DHT22;10398;52.490;13.434;2022-10-23T02:16:23;14.40;99.90
20479;DHT22;10398;52.490;13.434;2022-10-23T02:21:44;14.40;99.90
20479;DHT22;10398;52.490;13.434;2022-10-23T02:24:15;14.40;99.90
20479;DHT22;10398;52.490;13.434;2022-10-23T02:26:51;14.40;99.90
20479;DHT22;10398;52.490;13.434;2022-10-23T02:29:23;14.40;99.90
20479;DHT22;10398;52.490;13.434;2022-10-23T02:31:51;14.40;99.90
20479;DHT22;10398;52.490;13.434;2022-10-23T02:34:17;14.30;99.90
20479;DHT22;10398;52.490;13.434;2022-10-23T02:36:43;14.30;99.90
20479;DHT22;10398;52.490;13.434;2022-10-23T02:39:09;14.30;99.90
20479;DHT22;10398;52.490;13.434;2022-10-23T02:41:50;14.30;99.90
20479;DHT22;10398;52.490;13.434;2022-10-23T02:47:03;14.30;99.90
20479;DHT22;10398;52.490;13.434;2022-10-23T02:49:43;14.30;99.90
20479;DHT22;10398;52.490;13.434;2022-10-23T02:52:20;14.30;99.90
20479;DHT22;10398;52.490;13.434;2022-10-23T02:54:49;14.30;99.90
20479;DHT22;10398;52.490;13.434;2022-10-23T02:57:21;14.30;99.90
20479;DHT22;10398;52.490;13.434;2022-10-23T03:00:12;14.30;99.90
20479;DHT22;10398;52.490;13.434;2022-10-23T03:02:40;14.30;99.90
20479;DHT22;10398;52.490;13.434;2022-10-23T03:05:16;14.30;99.90
20479;DHT22;10398;52.490;13.434;2022-10-23T03:07:42;14.20;99.90
20479;DHT22;10398;52.490;13.434;2022-10-23T03:10:09;14.30;99.90
20479;DHT22;10398;52.490;13.434;2022-10-23T03:12:35;14.30;99.90
20479;DHT22;10398;52.490;13.434;2022-10-23T03:15:01;14.20;99.90
20479;DHT22;10398;52.490;13.434;2022-10-23T03:17:26;14.20;99.90
20479;DHT22;10398;52.490;13.434;2022-10-23T03:19:52;14.20;99.90
20479;DHT22;10398;52.490;13.434;2022-10-23T03:22:17;14.20;99.90
20479;DHT22;10398;52.490;13.434;2022-10-23T03:24:43;14.20;99.90
20479;DHT22;10398;52.490;13.434;2022-10-23T03:27:09;14.20;99.90
20479;DHT22;10398;52.490;13.434;2022-10-23T03:29:36;14.20;99.90
20479;DHT22;10398;52.490;13.434;2022-10-23T03:32:02;14.20;99.90
20479;DHT22;10398;52.490;13.434;2022-10-23T03:34:27;14.30;99.90
20479;DHT22;10398;52.490;13.434;2022-10-23T03:36:53;14.20;99.90
20479;DHT22;10398;52.490;13.434;2022-10-23T03:39:18;14.20;99.90
20479;DHT22;10398;52.490;13.434;2022-10-23T03:41:44;14.20;99.90
20479;DHT22;10398;52.490;13.434;2022-10-23T03:44:09;14.20;99.90
20479;DHT22;10398;52.490;13.434;2022-10-23T03:46:35;14.10;99.90
20479;DHT22;10398;52.490;13.434;2022-10-23T03:49:01;14.10;99.90
20479;DHT22;10398;52.490;13.434;2022-10-23T03:51:26;14.10;99.90
20479;DHT22;10398;52.490;13.434;2022-10-23T03:53:52;14.10;99.90
20479;DHT22;10398;52.490;13.434;2022-10-23T03:56:18;14.00;99.90
20479;DHT22;10398;52.490;13.434;2022-10-23T03:58:43;14.00;99.90
20479;DHT22;10398;52.490;13.434;2022-10-23T04:01:09;14.00;99.90
20479;DHT22;10398;52.490;13.434;2022-10-23T04:03:34;14.00;99.90
20479;DHT22;10398;52.490;13.434;2022-10-23T04:06:00;14.00;99.90
20479;DHT22;10398;52.490;13.434;2022-10-23T04:08:26;14.00;99.90
20479;DHT22;10398;52.490;13.434;2022-10-23T04:10:53;14.00;99.90
20479;DHT22;10398;52.490;13.434;2022-10-23T04:13:19;14.00;99.90
20479;DHT22;10398;52.490;13.434;2022-10-23T04:15:51;14.00;99.90
20479;DHT22;10398;52.490;13.434;2022-10-23T04:18:17;13.90;99.90
20479;DHT22;10398;52.490;13.434;2022-10-23T04:20:46;13.90;99.90
20479;DHT22;10398;52.490;13.434;2022-10-23T04:23:12;13.90;99.90
20479;DHT22;10398;52.490;13.434;2022-10-23T04:25:37;13.90;99.90
20479;DHT22;10398;52.490;13.434;2022-10-23T04:28:03;13.90;99.90
20479;DHT22;10398;52.490;13.434;2022-10-23T04:30:28;13.90;99.90
20479;DHT22;10398;52.490;13.434;2022-10-23T04:32:54;13.90;99.90
20479;DHT22;10398;52.490;13.434;2022-10-23T04:35:20;13.80;99.90
20479;DHT22;10398;52.490;13.434;2022-10-23T04:37:46;13.80;99.90
20479;DHT22;10398;52.490;13.434;2022-10-23T04:40:12;13.80;99.90
20479;DHT22;10398;52.490;13.434;2022-10-23T04:42:37;13.80;99.90
20479;DHT22;10398;52.490;13.434;2022-10-23T04:45:04;13.80;99.90
20479;DHT22;10398;52.490;13.434;2022-10-23T04:47:29;13.70;99.90
20479;DHT22;10398;52.490;13.434;2022-10-23T04:49:55;13.60;99.90
20479;DHT22;10398;52.490;13.434;2022-10-23T04:52:21;13.50;99.90
20479;DHT22;10398;52.490;13.434;2022-10-23T04:54:47;13.50;99.90
20479;DHT22;10398;52.490;13.434;2022-10-23T04:57:12;13.50;99.90
20479;DHT22;10398;52.490;13.434;2022-10-23T04:59:38;13.40;99.90
20479;DHT22;10398;52.490;13.434;2022-10-23T05:02:04;13.40;99.90
20479;DHT22;10398;52.490;13.434;2022-10-23T05:04:30;13.50;99.90
20479;DHT22;10398;52.490;13.434;2022-10-23T05:06:55;13.50;99.90
20479;DHT22;10398;52.490;13.434;2022-10-23T05:09:21;13.40;99.90
20479;DHT22;10398;52.490;13.434;2022-10-23T05:11:47;13.40;99.90
20479;DHT22;10398;52.490;13.434;2022-10-23T05:14:13;13.30;99.90
20479;DHT22;10398;52.490;13.434;2022-10-23T05:16:45;13.20;99.90
20479;DHT22;10398;52.490;13.434;2022-10-23T05:19:17;13.10;99.90
20479;DHT22;10398;52.490;13.434;2022-10-23T05:21:45;13.10;99.90
20479;DHT22;10398;52.490;13.434;2022-10-23T05:24:11;13.10;99.90
20479;DHT22;10398;52.490;13.434;2022-10-23T05:26:37;13.10;99.90
20479;DHT22;10398;52.490;13.434;2022-10-23T05:29:02;13.20;99.90
20479;DHT22;10398;52.490;13.434;2022-10-23T05:31:28;13.10;99.90
20479;DHT22;10398;52.490;13.434;2022-10-23T05:33:55;13.20;99.90
20479;DHT22;10398;52.490;13.434;2022-10-23T05:36:22;13.10;99.90
20479;DHT22;10398;52.490;13.434;2022-10-23T05:38:49;13.00;99.90
20479;DHT22;10398;52.490;13.434;2022-10-23T05:41:15;13.10;99.90
20479;DHT22;10398;52.490;13.434;2022-10-23T05:43:40;13.00;99.90
20479;DHT22;10398;52.490;13.434;2022-10-23T05:46:06;13.00;99.90
20479;DHT22;10398;52.490;13.434;2022-10-23T05:48:33;13.00;99.90
20479;DHT22;10398;52.490;13.434;2022-10-23T05:51:03;12.90;99.90
20479;DHT22;10398;52.490;13.434;2022-10-23T05:53:29;12.90;99.90
20479;DHT22;10398;52.490;13.434;2022-10-23T05:55:54;12.90;99.90
20479;DHT22;10398;52.490;13.434;2022-10-23T05:58:20;12.90;99.90
20479;DHT22;10398;52.490;13.434;2022-10-23T06:00:47;12.80;99.90
20479;DHT22;10398;52.490;13.434;2022-10-23T06:03:13;12.90;99.90
20479;DHT22;10398;52.490;13.434;2022-10-23T06:05:38;12.90;99.90
20479;DHT22;10398;52.490;13.434;2022-10-23T06:08:04;13.00;99.90
20479;DHT22;10398;52.490;13.434;2022-10-23T06:10:30;12.90;99.90
20479;DHT22;10398;52.490;13.434;2022-10-23T06:12:56;13.00;99.90
20479;DHT22;10398;52.490;13.434;2022-10-23T06:15:21;12.90;99.90
20479;DHT22;10398;52.490;13.434;2022-10-23T06:17:47;12.90;99.90
20479;DHT22;10398;52.490;13.434;2022-10-23T06:20:13;12.90;99.90
20479;DHT22;10398;52.490;13.434;2022-10-23T06:22:38;12.90;99.90
20479;DHT22;10398;52.490;13.434;2022-10-23T06:25:05;12.90;99.90
20479;DHT22;10398;52.490;13.434;2022-10-23T06:27:30;12.90;99.90
20479;DHT22;10398;52.490;13.434;2022-10-23T06:29:56;12.90;99.90
20479;DHT22;10398;52.490;13.434;2022-10-23T06:32:21;12.90;99.90
20479;DHT22;10398;52.490;13.434;2022-10-23T06:34:47;12.90;99.90
20479;DHT22;10398;52.490;13.434;2022-10-23T06:37:14;12.80;99.90
20479;DHT22;10398;52.490;13.434;2022-10-23T06:39:40;12.80;99.90
20479;DHT22;10398;52.490;13.434;2022-10-23T06:42:06;12.80;99.90
20479;DHT22;10398;52.490;13.434;2022-10-23T06:44:32;12.80;99.90
20479;DHT22;10398;52.490;13.434;2022-10-23T06:46:57;12.70;99.90
20479;DHT22;10398;52.490;13.434;2022-10-23T06:49:25;12.70;99.90
20479;DHT22;10398;52.490;13.434;2022-10-23T06:51:50;12.80;99.90
20479;DHT22;10398;52.490;13.434;2022-10-23T06:54:16;12.80;99.90
20479;DHT22;10398;52.490;13.434;2022-10-23T06:56:41;12.80;99.90
20479;DHT22;10398;52.490;13.434;2022-10-23T06:59:07;12.80;99.90
20479;DHT22;10398;52.490;13.434;2022-10-23T07:01:34;12.80;99.90
20479;DHT22;10398;52.490;13.434;2022-10-23T07:04:00;12.90;99.90
20479;DHT22;10398;52.490;13.434;2022-10-23T07:06:25;13.00;99.90
20479;DHT22;10398;52.490;13.434;2022-10-23T07:08:51;13.00;99.90
20479;DHT22;10398;52.490;13.434;2022-10-23T07:11:16;13.00;99.90
20479;DHT22;10398;52.490;13.434;2022-10-23T07:13:42;13.00;99.90
20479;DHT22;10398;52.490;13.434;2022-10-23T07:16:19;13.00;99.90
20479;DHT22;10398;52.490;13.434;2022-10-23T07:18:47;13.10;99.90
20479;DHT22;10398;52.490;13.434;2022-10-23T07:21:13;13.10;99.90
20479;DHT22;10398;52.490;13.434;2022-10-23T07:23:39;13.10;99.90
20479;DHT22;10398;52.490;13.434;2022-10-23T07:26:10;13.20;99.90
20479;DHT22;10398;52.490;13.434;2022-10-23T07:28:38;13.20;99.90
20479;DHT22;10398;52.490;13.434;2022-10-23T07:31:05;13.30;99.90
20479;DHT22;10398;52.490;13.434;2022-10-23T07:33:31;13.30;99.90
20479;DHT22;10398;52.490;13.434;2022-10-23T07:35:57;13.40;99.90
20479;DHT22;10398;52.490;13.434;2022-10-23T07:38:22;13.50;99.90
20479;DHT22;10398;52.490;13.434;2022-10-23T07:40:48;13.50;99.90
20479;DHT22;10398;52.490;13.434;2022-10-23T07:43:14;13.60;99.90
20479;DHT22;10398;52.490;13.434;2022-10-23T07:45:39;13.60;99.90
20479;DHT22;10398;52.490;13.434;2022-10-23T07:48:05;13.70;99.90
20479;DHT22;10398;52.490;13.434;2022-10-23T07:50:31;13.80;99.90
20479;DHT22;10398;52.490;13.434;2022-10-23T07:52:56;13.90;99.90
20479;DHT22;10398;52.490;13.434;2022-10-23T07:55:23;14.00;99.90
20479;DHT22;10398;52.490;13.434;2022-10-23T07:57:48;14.00;99.90
20479;DHT22;10398;52.490;13.434;2022-10-23T08:00:14;14.10;99.90
20479;DHT22;10398;52.490;13.434;2022-10-23T08:02:40;14.20;99.90
20479;DHT22;10398;52.490;13.434;2022-10-23T08:05:06;14.30;99.90
20479;DHT22;10398;52.490;13.434;2022-10-23T08:07:31;14.40;99.90
20479;DHT22;10398;52.490;13.434;2022-10-23T08:09:57;14.50;99.90
20479;DHT22;10398;52.490;13.434;2022-10-23T08:12:22;14.50;99.90
20479;DHT22;10398;52.490;13.434;2022-10-23T08:14:48;14.60;99.90
20479;DHT22;10398;52.490;13.434;2022-10-23T08:17:14;14.80;99.90
20479;DHT22;10398;52.490;13.434;2022-10-23T08:19:39;14.90;99.90
20479;DHT22;10398;52.490;13.434;2022-10-23T08:22:11;15.00;99.90
20479;DHT22;10398;52.490;13.434;2022-10-23T08:24:36;15.00;99.90
20479;DHT22;10398;52.490;13.434;2022-10-23T08:27:02;15.10;99.90
20479;DHT22;10398;52.490;13.434;2022-10-23T08:29:28;15.30;99.90
20479;DHT22;10398;52.490;13.434;2022-10-23T08:31:53;15.50;99.90
20479;DHT22;10398;52.490;13.434;2022-10-23T08:34:20;15.70;99.90
20479;DHT22;10398;52.490;13.434;2022-10-23T08:36:46;15.80;99.90
20479;DHT22;10398;52.490;13.434;2022-10-23T08:39:12;15.90;99.90
20479;DHT22;10398;52.490;13.434;2022-10-23T08:41:40;16.00;99.90
20479;DHT22;10398;52.490;13.434;2022-10-23T08:52:25;16.50;99.90
20479;DHT22;10398;52.490;13.434;2022-10-23T08:55:22;16.60;99.90
20479;DHT22;10398;52.490;13.434;2022-10-23T08:57:57;16.70;99.90
20479;DHT22;10398;52.490;13.434;2022-10-23T09:00:25;16.80;99.90
20479;DHT22;10398;52.490;13.434;2022-10-23T09:02:51;16.90;99.90
20479;DHT22;10398;52.490;13.434;2022-10-23T09:05:26;17.00;99.90
20479;DHT22;10398;52.490;13.434;2022-10-23T09:11:02;17.30;99.90
20479;DHT22;10398;52.490;13.434;2022-10-23T09:19:31;17.60;99.90
20479;DHT22;10398;52.490;13.434;2022-10-23T09:21:57;17.80;99.90
20479;DHT22;10398;52.490;13.434;2022-10-23T09:24:25;17.90;99.90
20479;DHT22;10398;52.490;13.434;2022-10-23T09:26:53;18.10;99.90
20479;DHT22;10398;52.490;13.434;2022-10-23T09:29:30;18.20;99.90
20479;DHT22;10398;52.490;13.434;2022-10-23T09:32:02;18.40;99.90
20479;DHT22;10398;52.490;13.434;2022-10-23T09:34:31;18.50;99.90
20479;DHT22;10398;52.490;13.434;2022-10-23T09:36:59;18.60;99.90
20479;DHT22;10398;52.490;13.434;2022-10-23T09:39:33;18.60;99.90
20479;DHT22;10398;52.490;13.434;2022-10-23T09:41:59;18.80;99.90
20479;DHT22;10398;52.490;13.434;2022-10-23T09:44:31;18.90;99.90
20479;DHT22;10398;52.490;13.434;2022-10-23T09:47:08;19.00;99.90
20479;DHT22;10398;52.490;13.434;2022-10-23T09:49:39;19.30;99.90
20479;DHT22;10398;52.490;13.434;2022-10-23T09:54:49;19.70;99.90
20479;DHT22;10398;52.490;13.434;2022-10-23T09:57:23;20.00;99.90
20479;DHT22;10398;52.490;13.434;2022-10-23T10:00:00;20.10;99.90
20479;DHT22;10398;52.490;13.434;2022-10-23T10:02:33;20.40;99.90
20479;DHT22;10398;52.490;13.434;2022-10-23T10:04:59;20.60;99.90
20479;DHT22;10398;52.490;13.434;2022-10-23T10:07:27;20.80;99.90
20479;DHT22;10398;52.490;13.434;2022-10-23T10:09:54;21.10;99.90
20479;DHT22;10398;52.490;13.434;2022-10-23T10:12:32;21.20;99.90
20479;DHT22;10398;52.490;13.434;2022-10-23T10:15:16;21.20;99.90
20479;DHT22;10398;52.490;13.434;2022-10-23T10:21:01;21.50;99.90
20479;DHT22;10398;52.490;13.434;2022-10-23T10:23:36;21.60;99.90
20479;DHT22;10398;52.490;13.434;2022-10-23T10:35:16;22.10;99.90
20479;DHT22;10398;52.490;13.434;2022-10-23T10:40:46;22.00;99.90
20479;DHT22;10398;52.490;13.434;2022-10-23T10:48:58;22.20;99.90
20479;DHT22;10398;52.490;13.434;2022-10-23T10:57:27;22.50;99.90
20479;DHT22;10398;52.490;13.434;2022-10-23T10:59:56;22.10;99.90
20479;DHT22;10398;52.490;13.434;2022-10-23T11:02:30;21.90;99.90
20479;DHT22;10398;52.490;13.434;2022-10-23T11:05:18;21.80;99.90
20479;DHT22;10398;52.490;13.434;2022-10-23T11:11:12;21.70;99.90
20479;DHT22;10398;52.490;13.434;2022-10-23T11:13:42;21.60;99.90
20479;DHT22;10398;52.490;13.434;2022-10-23T11:16:27;21.50;99.90
20479;DHT22;10398;52.490;13.434;2022-10-23T11:21:34;21.20;99.90
20479;DHT22;10398;52.490;13.434;2022-10-23T11:25:03;21.10;99.90
20479;DHT22;10398;52.490;13.434;2022-10-23T11:27:36;21.10;99.90
20479;DHT22;10398;52.490;13.434;2022-10-23T11:30:20;21.00;99.90
20479;DHT22;10398;52.490;13.434;2022-10-23T11:38:29;20.90;99.90
20479;DHT22;10398;52.490;13.434;2022-10-23T11:43:52;21.00;99.90
20479;DHT22;10398;52.490;13.434;2022-10-23T11:48:51;20.90;99.90
20479;DHT22;10398;52.490;13.434;2022-10-23T11:56:37;21.00;99.90
20479;DHT22;10398;52.490;13.434;2022-10-23T12:02:35;21.20;99.90
20479;DHT22;10398;52.490;13.434;2022-10-23T12:05:09;21.30;99.90
20479;DHT22;10398;52.490;13.434;2022-10-23T12:07:53;21.40;99.90
20479;DHT22;10398;52.490;13.434;2022-10-23T12:10:26;21.50;99.90
20479;DHT22;10398;52.490;13.434;2022-10-23T12:13:04;21.60;99.90
20479;DHT22;10398;52.490;13.434;2022-10-23T12:15:31;21.70;99.90
20479;DHT22;10398;52.490;13.434;2022-10-23T12:18:16;21.90;99.90
20479;DHT22;10398;52.490;13.434;2022-10-23T12:20:58;21.90;99.90
20479;DHT22;10398;52.490;13.434;2022-10-23T12:26:19;21.80;99.90
20479;DHT22;10398;52.490;13.434;2022-10-23T12:28:56;21.70;99.90
20479;DHT22;10398;52.490;13.434;2022-10-23T12:34:17;21.50;99.90
20479;DHT22;10398;52.490;13.434;2022-10-23T12:39:51;21.30;99.90
20479;DHT22;10398;52.490;13.434;2022-10-23T12:42:22;21.10;99.90
20479;DHT22;10398;52.490;13.434;2022-10-23T12:44:59;20.80;99.90
20479;DHT22;10398;52.490;13.434;2022-10-23T12:47:25;20.50;99.90
20479;DHT22;10398;52.490;13.434;2022-10-23T12:49:51;20.50;99.90
20479;DHT22;10398;52.490;13.434;2022-10-23T12:52:18;20.30;99.90
20479;DHT22;10398;52.490;13.434;2022-10-23T12:54:45;20.20;99.90
20479;DHT22;10398;52.490;13.434;2022-10-23T12:57:39;20.10;99.90
20479;DHT22;10398;52.490;13.434;2022-10-23T13:00:14;20.00;99.90
20479;DHT22;10398;52.490;13.434;2022-10-23T13:02:40;19.90;99.90
20479;DHT22;10398;52.490;13.434;2022-10-23T13:05:07;19.90;99.90
20479;DHT22;10398;52.490;13.434;2022-10-23T13:07:42;19.80;99.90
20479;DHT22;10398;52.490;13.434;2022-10-23T13:10:13;19.70;99.90
20479;DHT22;10398;52.490;13.434;2022-10-23T13:12:39;19.50;99.90
20479;DHT22;10398;52.490;13.434;2022-10-23T13:17:38;19.30;99.90
20479;DHT22;10398;52.490;13.434;2022-10-23T13:20:29;19.30;99.90
20479;DHT22;10398;52.490;13.434;2022-10-23T13:23:18;19.30;99.90
20479;DHT22;10398;52.490;13.434;2022-10-23T13:28:42;19.20;99.90
20479;DHT22;10398;52.490;13.434;2022-10-23T13:33:39;19.00;99.90
20479;DHT22;10398;52.490;13.434;2022-10-23T13:38:58;19.00;99.90
20479;DHT22;10398;52.490;13.434;2022-10-23T13:41:29;19.00;99.90
20479;DHT22;10398;52.490;13.434;2022-10-23T13:43:54;19.00;99.90
20479;DHT22;10398;52.490;13.434;2022-10-23T13:46:22;19.00;99.90
20479;DHT22;10398;52.490;13.434;2022-10-23T13:48:48;19.00;99.90
20479;DHT22;10398;52.490;13.434;2022-10-23T13:53:44;18.90;99.90
20479;DHT22;10398;52.490;13.434;2022-10-23T13:56:11;18.90;99.90
20479;DHT22;10398;52.490;13.434;2022-10-23T13:58:37;19.00;99.90
20479;DHT22;10398;52.490;13.434;2022-10-23T14:01:03;18.90;99.90
20479;DHT22;10398;52.490;13.434;2022-10-23T14:03:31;18.90;99.90
20479;DHT22;10398;52.490;13.434;2022-10-23T14:05:57;18.90;99.90
20479;DHT22;10398;52.490;13.434;2022-10-23T14:08:22;18.90;99.90
20479;DHT22;10398;52.490;13.434;2022-10-23T14:10:48;18.90;99.90
20479;DHT22;10398;52.490;13.434;2022-10-23T14:13:14;18.80;99.90
20479;DHT22;10398;52.490;13.434;2022-10-23T14:15:40;18.80;99.90
20479;DHT22;10398;52.490;13.434;2022-10-23T14:18:05;18.80;99.90
20479;DHT22;10398;52.490;13.434;2022-10-23T14:20:31;18.80;99.90
20479;DHT22;10398;52.490;13.434;2022-10-23T14:22:56;18.70;99.90
20479;DHT22;10398;52.490;13.434;2022-10-23T14:25:22;18.70;99.90
20479;DHT22;10398;52.490;13.434;2022-10-23T14:27:48;18.70;99.90
20479;DHT22;10398;52.490;13.434;2022-10-23T14:30:14;18.70;99.90
20479;DHT22;10398;52.490;13.434;2022-10-23T14:32:40;18.70;99.90
20479;DHT22;10398;52.490;13.434;2022-10-23T14:35:06;18.70;99.90
20479;DHT22;10398;52.490;13.434;2022-10-23T14:37:32;18.60;99.90
20479;DHT22;10398;52.490;13.434;2022-10-23T14:39:58;18.60;99.90
20479;DHT22;10398;52.490;13.434;2022-10-23T14:42:25;18.60;99.90
20479;DHT22;10398;52.490;13.434;2022-10-23T14:44:51;18.60;99.90
20479;DHT22;10398;52.490;13.434;2022-10-23T14:47:17;18.50;99.90
20479;DHT22;10398;52.490;13.434;2022-10-23T14:49:47;18.50;99.90
20479;DHT22;10398;52.490;13.434;2022-10-23T14:52:14;18.50;99.90
20479;DHT22;10398;52.490;13.434;2022-10-23T14:54:40;18.50;99.90
20479;DHT22;10398;52.490;13.434;2022-10-23T14:57:06;18.50;99.90
20479;DHT22;10398;52.490;13.434;2022-10-23T14:59:32;18.50;99.90
20479;DHT22;10398;52.490;13.434;2022-10-23T15:01:57;18.50;99.90
20479;DHT22;10398;52.490;13.434;2022-10-23T15:04:23;18.50;99.90
20479;DHT22;10398;52.490;13.434;2022-10-23T15:06:49;18.50;99.90
20479;DHT22;10398;52.490;13.434;2022-10-23T15:09:14;18.40;99.90
20479;DHT22;10398;52.490;13.434;2022-10-23T15:11:40;18.40;99.90
20479;DHT22;10398;52.490;13.434;2022-10-23T15:14:06;18.40;99.90
20479;DHT22;10398;52.490;13.434;2022-10-23T15:16:32;18.40;99.90
20479;DHT22;10398;52.490;13.434;2022-10-23T15:18:58;18.40;99.90
20479;DHT22;10398;52.490;13.434;2022-10-23T15:21:24;18.30;99.90
20479;DHT22;10398;52.490;13.434;2022-10-23T15:23:49;18.30;99.90
20479;DHT22;10398;52.490;13.434;2022-10-23T15:26:17;18.30;99.90
20479;DHT22;10398;52.490;13.434;2022-10-23T15:28:56;18.20;99.90
20479;DHT22;10398;52.490;13.434;2022-10-23T15:31:38;18.20;99.90
20479;DHT22;10398;52.490;13.434;2022-10-23T15:34:08;18.10;99.90
20479;DHT22;10398;52.490;13.434;2022-10-23T15:36:35;18.10;99.90
20479;DHT22;10398;52.490;13.434;2022-10-23T15:39:00;18.00;99.90
20479;DHT22;10398;52.490;13.434;2022-10-23T15:41:29;18.00;99.90
20479;DHT22;10398;52.490;13.434;2022-10-23T15:43:56;17.90;99.90
20479;DHT22;10398;52.490;13.434;2022-10-23T15:46:22;17.90;99.90
20479;DHT22;10398;52.490;13.434;2022-10-23T15:48:48;17.90;99.90
20479;DHT22;10398;52.490;13.434;2022-10-23T15:51:13;17.80;99.90
20479;DHT22;10398;52.490;13.434;2022-10-23T15:53:39;17.80;99.90
20479;DHT22;10398;52.490;13.434;2022-10-23T15:56:05;17.70;99.90
20479;DHT22;10398;52.490;13.434;2022-10-23T15:58:33;17.70;99.90
20479;DHT22;10398;52.490;13.434;2022-10-23T16:01:01;17.70;99.90
20479;DHT22;10398;52.490;13.434;2022-10-23T16:03:34;17.60;99.90
20479;DHT22;10398;52.490;13.434;2022-10-23T16:06:05;17.60;99.90
20479;DHT22;10398;52.490;13.434;2022-10-23T16:08:31;17.60;99.90
20479;DHT22;10398;52.490;13.434;2022-10-23T16:10:57;17.60;99.90
20479;DHT22;10398;52.490;13.434;2022-10-23T16:13:27;17.50;99.90
20479;DHT22;10398;52.490;13.434;2022-10-23T16:15:53;17.50;99.90
20479;DHT22;10398;52.490;13.434;2022-10-23T16:18:20;17.50;99.90
20479;DHT22;10398;52.490;13.434;2022-10-23T16:20:46;17.50;99.90
20479;DHT22;10398;52.490;13.434;2022-10-23T16:23:12;17.40;99.90
20479;DHT22;10398;52.490;13.434;2022-10-23T16:25:38;17.40;99.90
20479;DHT22;10398;52.490;13.434;2022-10-23T16:28:04;17.40;99.90
20479;DHT22;10398;52.490;13.434;2022-10-23T16:30:30;17.40;99.90
20479;DHT22;10398;52.490;13.434;2022-10-23T16:32:56;17.40;99.90
20479;DHT22;10398;52.490;13.434;2022-10-23T16:35:22;17.40;99.90
20479;DHT22;10398;52.490;13.434;2022-10-23T16:37:48;17.30;99.90
20479;DHT22;10398;52.490;13.434;2022-10-23T16:40:14;17.30;99.90
20479;DHT22;10398;52.490;13.434;2022-10-23T16:42:40;17.30;99.90
20479;DHT22;10398;52.490;13.434;2022-10-23T16:45:07;17.20;99.90
20479;DHT22;10398;52.490;13.434;2022-10-23T16:47:32;17.10;99.90
20479;DHT22;10398;52.490;13.434;2022-10-23T16:49:58;17.10;99.90
20479;DHT22;10398;52.490;13.434;2022-10-23T16:52:25;17.00;99.90
20479;DHT22;10398;52.490;13.434;2022-10-23T16:54:51;17.00;99.90
20479;DHT22;10398;52.490;13.434;2022-10-23T16:57:16;17.00;99.90
20479;DHT22;10398;52.490;13.434;2022-10-23T16:59:42;16.90;99.90
20479;DHT22;10398;52.490;13.434;2022-10-23T17:02:10;16.90;99.90
20479;DHT22;10398;52.490;13.434;2022-10-23T17:04:35;16.90;99.90
20479;DHT22;10398;52.490;13.434;2022-10-23T17:07:02;16.80;99.90
20479;DHT22;10398;52.490;13.434;2022-10-23T17:09:27;16.80;99.90